Station Historical Data
Daily Summary for February 25, 2017 Units:  Metric    English   Both
« Previous Day
Next Day »
Daily Weekly Monthly Yearly Custom
  High: Low: Average:
Temperature: 18.7 °C -1.8 °C 5.6 °C
Dew Point: 11.4 °C -6.2 °C 2.6 °C
Humidity: 92% 62% 81%
Wind Speed: 35.4km/h 0km/h 12.7km/h
Wind Gust: 51.5km/h - -
Wind- - WSW
Pressure: 1010.4 hPa 996.8 hPa -
Precipitation: 0 mm    
Historical Graphs
 
 
Tabular Data for February 25, 2017
Time Temperature Dew Point Pressure Wind Wind Speed Wind Gust Humidity Rainfall Rate (Hourly)
00:04 18.7 °C 11.2 °C 998.9 hPa SSE 11.3 km/h 19.3 km/h 62% 0 mm
00:09 18.6 °C 11.1 °C 998.9 hPa South 9.7 km/h 25.7 km/h 62% 0 mm
00:14 18.6 °C 11.2 °C 998.9 hPa SSW 4.8 km/h 22.5 km/h 62% 0 mm
00:19 18.4 °C 11 °C 999.9 hPa WNW 9.7 km/h 19.3 km/h 62% 0 mm
00:24 16.8 °C 9.7 °C 999.9 hPa West 9.7 km/h 24.1 km/h 63% 0 mm
00:29 15.7 °C 9.4 °C 999.9 hPa WNW 9.7 km/h 19.3 km/h 66% 0 mm
00:34 14.7 °C 9.1 °C 999.9 hPa West 6.4 km/h 22.5 km/h 69% 0 mm
00:39 14.1 °C 8.5 °C 999.9 hPa NNW 6.4 km/h 16.1 km/h 69% 0 mm
00:44 13.2 °C 8.1 °C 999.9 hPa WNW 8 km/h 16.1 km/h 71% 0 mm
00:49 12.7 °C 8 °C 999.5 hPa WNW 4.8 km/h 12.9 km/h 73% 0 mm
00:54 12.4 °C 7.9 °C 999.5 hPa WNW 3.2 km/h 6.4 km/h 74% 0 mm
00:59 12.3 °C 7.8 °C 999.5 hPa NW 1.6 km/h 6.4 km/h 74% 0 mm
01:04 12.2 °C 7.9 °C 999.5 hPa Calm     75% 0 mm
01:09 12.1 °C 7.8 °C 999.2 hPa Calm     75% 0 mm
01:14 12.1 °C 7.8 °C 999.2 hPa Calm     75% 0 mm
01:19 12 °C 7.9 °C 999.2 hPa Calm     76% 0 mm
01:24 11.9 °C 7.8 °C 999.2 hPa Calm     76% 0 mm
01:29 11.8 °C 7.9 °C 999.2 hPa Calm     77% 0 mm
01:34 11.7 °C 7.8 °C 999.2 hPa Calm     77% 0 mm
01:39 11.7 °C 7.8 °C 998.9 hPa Calm     77% 0 mm
01:44 11.7 °C 7.8 °C 998.9 hPa Calm   4.8 km/h 77% 0 mm
01:49 11.7 °C 7.8 °C 998.9 hPa SSE 1.6 km/h 4.8 km/h 77% 0 mm
01:54 11.7 °C 7.9 °C 998.9 hPa SSE 1.6 km/h 4.8 km/h 78% 0 mm
01:59 11.6 °C 7.8 °C 998.9 hPa South 1.6 km/h 4.8 km/h 78% 0 mm
02:04 11.6 °C 8.1 °C 998.5 hPa Calm   3.2 km/h 79% 0 mm
02:09 11.6 °C 7.9 °C 998.5 hPa Calm   3.2 km/h 78% 0 mm
02:14 11.5 °C 8 °C 998.9 hPa Calm   1.6 km/h 79% 0 mm
02:19 11.4 °C 7.9 °C 998.9 hPa Calm   1.6 km/h 79% 0 mm
02:24 11.3 °C 7.9 °C 998.9 hPa Calm     80% 0 mm
02:29 11.2 °C 7.9 °C 998.9 hPa WNW 3.2 km/h 3.2 km/h 80% 0 mm
02:34 11.3 °C 7.9 °C 999.5 hPa West 4.8 km/h 6.4 km/h 80% 0 mm
02:39 11.4 °C 8.1 °C 999.9 hPa West 4.8 km/h 8 km/h 80% 0 mm
02:44 11.7 °C 8.2 °C 999.9 hPa West 3.2 km/h 9.7 km/h 79% 0 mm
02:49 11.8 °C 8.3 °C 999.9 hPa WNW 4.8 km/h 9.7 km/h 79% 0 mm
02:54 12.1 °C 8.4 °C 999.9 hPa WNW 4.8 km/h 11.3 km/h 78% 0 mm
02:59 12.3 °C 8.6 °C 1000.2 hPa West 6.4 km/h 11.3 km/h 78% 0 mm
03:09 12.7 °C 9 °C 1000.6 hPa West 8 km/h 16.1 km/h 78% 0 mm
03:14 12.6 °C 8.9 °C 1000.6 hPa WSW 8 km/h 16.1 km/h 78% 0 mm
03:19 12.6 °C 9.2 °C 1000.6 hPa WSW 8 km/h 20.9 km/h 80% 0 mm
03:24 12.6 °C 9.7 °C 1000.2 hPa WSW 12.9 km/h 25.7 km/h 83% 0.51 mm
03:29 12.4 °C 9.8 °C 999.5 hPa SW 9.7 km/h 17.7 km/h 84% 0.51 mm
03:34 12.2 °C 9.8 °C 999.5 hPa SSW 3.2 km/h 12.9 km/h 85% 0.51 mm
03:39 11.9 °C 9.5 °C 999.5 hPa SSW 4.8 km/h 9.7 km/h 85% 0.51 mm
03:44 11.7 °C 9.4 °C 999.5 hPa SSW 4.8 km/h 8 km/h 86% 0.76 mm
03:49 11.3 °C 9.1 °C 999.5 hPa South 3.2 km/h 11.3 km/h 86% 0.76 mm
03:54 11.1 °C 8.8 °C 999.5 hPa South 4.8 km/h 11.3 km/h 86% 0.76 mm
03:59 11 °C 8.9 °C 999.5 hPa South 4.8 km/h 8 km/h 87% 0.76 mm
04:04 10.8 °C 8.8 °C 999.2 hPa South 3.2 km/h 8 km/h 87% 0.76 mm
04:09 10.8 °C 8.9 °C 999.2 hPa South 3.2 km/h 6.4 km/h 88% 0.76 mm
04:14 10.9 °C 9 °C 999.2 hPa South 3.2 km/h 6.4 km/h 88% 0.76 mm
04:19 10.9 °C 9.1 °C 999.5 hPa South 4.8 km/h 6.4 km/h 88% 0.76 mm
04:24 10.9 °C 9 °C 999.5 hPa South 3.2 km/h 6.4 km/h 88% 0.51 mm
04:29 10.9 °C 9 °C 999.5 hPa South 3.2 km/h 6.4 km/h 88% 0.76 mm
04:34 11 °C 9.3 °C 999.2 hPa South 3.2 km/h 6.4 km/h 89% 0.76 mm
04:39 11.2 °C 9.4 °C 999.2 hPa South 3.2 km/h 8 km/h 89% 1.02 mm
04:44 11.3 °C 9.8 °C 999.2 hPa SSE 9.7 km/h 11.3 km/h 90% 0.76 mm
04:49 11.6 °C 9.9 °C 998.9 hPa SSE 1.6 km/h 9.7 km/h 90% 0.76 mm
04:54 11.7 °C 10.1 °C 998.5 hPa South 6.4 km/h 8 km/h 90% 0.76 mm
04:59 11.9 °C 10.3 °C 998.5 hPa SSE 4.8 km/h 9.7 km/h 90% 0.76 mm
05:04 12.1 °C 10.5 °C 998.5 hPa South 4.8 km/h 11.3 km/h 90% 1.02 mm
05:09 12.3 °C 10.7 °C 998.9 hPa South 1.6 km/h 8 km/h 90% 1.02 mm
05:14 12.3 °C 10.7 °C 998.5 hPa South 3.2 km/h 8 km/h 90% 1.02 mm
05:19 12.4 °C 10.8 °C 998.2 hPa SSE 3.2 km/h 8 km/h 90% 1.02 mm
05:24 12.6 °C 10.9 °C 998.2 hPa SSW 1.6 km/h 8 km/h 90% 1.02 mm
05:29 12.6 °C 11 °C 998.2 hPa South 3.2 km/h 8 km/h 90% 0.76 mm
05:34 12.7 °C 11.1 °C 998.2 hPa South 4.8 km/h 9.7 km/h 90% 0.76 mm
05:39 12.7 °C 10.9 °C 998.2 hPa South 4.8 km/h 9.7 km/h 89% 0.76 mm
05:44 12.7 °C 11.1 °C 998.2 hPa South 3.2 km/h 8 km/h 90% 1.02 mm
05:49 12.8 °C 11.2 °C 998.2 hPa South 3.2 km/h 9.7 km/h 90% 1.02 mm
05:54 12.8 °C 11.2 °C 997.9 hPa South 4.8 km/h 9.7 km/h 90% 1.27 mm
05:59 12.9 °C 11.1 °C 997.9 hPa SSW 3.2 km/h 6.4 km/h 89% 1.27 mm
06:04 12.9 °C 11.3 °C 997.5 hPa South 6.4 km/h 12.9 km/h 90% 1.02 mm
06:09 13.1 °C 11.3 °C 997.5 hPa South 6.4 km/h 12.9 km/h 89% 1.27 mm
06:14 13.1 °C 11.3 °C 997.5 hPa South 3.2 km/h 16.1 km/h 89% 1.78 mm
06:19 13.1 °C 11.3 °C 997.5 hPa SSW 9.7 km/h 11.3 km/h 89% 2.03 mm
06:24 13.2 °C 11.4 °C 997.5 hPa South 6.4 km/h 16.1 km/h 89% 2.29 mm
06:29 13.2 °C 11.4 °C 997.2 hPa SSE 4.8 km/h 14.5 km/h 89% 2.29 mm
06:34 13.2 °C 11.4 °C 997.2 hPa SSW 6.4 km/h 11.3 km/h 89% 2.29 mm
06:39 13.1 °C 11.3 °C 997.2 hPa South 6.4 km/h 11.3 km/h 89% 2.29 mm
06:44 13.1 °C 11.4 °C 996.8 hPa South 4.8 km/h 9.7 km/h 90% 2.03 mm
06:49 13.1 °C 11.4 °C 996.8 hPa South 4.8 km/h 12.9 km/h 90% 2.29 mm
06:54 13 °C 11.4 °C 997.5 hPa South 6.4 km/h 12.9 km/h 90% 2.29 mm
06:59 12.1 °C 9.8 °C 998.2 hPa SW 12.9 km/h 35.4 km/h 86% 2.54 mm
07:04 10.5 °C 8.1 °C 997.9 hPa WSW 19.3 km/h 37 km/h 85% 3.05 mm
07:09 9.3 °C 7.1 °C 997.2 hPa West 6.4 km/h 25.7 km/h 86% 3.05 mm
07:14 8.8 °C 6.9 °C 997.9 hPa WSW 9.7 km/h 20.9 km/h 88% 3.05 mm
07:19 8.3 °C 6.6 °C 998.2 hPa WSW 14.5 km/h 20.9 km/h 89% 3.3 mm
07:24 8 °C 6.3 °C 998.2 hPa WSW 11.3 km/h 20.9 km/h 89% 3.05 mm
07:29 7.5 °C 5.8 °C 998.2 hPa SW 14.5 km/h 24.1 km/h 89% 3.05 mm
07:34 6.9 °C 5.4 °C 998.5 hPa West 11.3 km/h 30.6 km/h 90% 3.05 mm
07:39 6.6 °C 5.1 °C 998.5 hPa SW 12.9 km/h 29 km/h 90% 3.05 mm
07:44 6.3 °C 4.8 °C 998.5 hPa SW 14.5 km/h 29 km/h 90% 3.3 mm
07:49 6.1 °C 4.8 °C 998.5 hPa SW 12.9 km/h 27.4 km/h 91% 3.3 mm
07:54 6 °C 4.7 °C 998.5 hPa SW 11.3 km/h 20.9 km/h 91% 3.56 mm
07:59 5.9 °C 4.6 °C 999.2 hPa SW 12.9 km/h 27.4 km/h 91% 4.06 mm
08:04 5.8 °C 4.4 °C 998.5 hPa SW 14.5 km/h 27.4 km/h 91% 4.32 mm
08:09 5.7 °C 4.4 °C 998.5 hPa SW 12.9 km/h 27.4 km/h 92% 4.57 mm
08:14 5.6 °C 4.4 °C 998.2 hPa SW 11.3 km/h 19.3 km/h 92% 4.57 mm
08:19 5.7 °C 4.4 °C 998.9 hPa SW 11.3 km/h 19.3 km/h 92% 4.32 mm
08:24 5.7 °C 4.4 °C 998.9 hPa SW 11.3 km/h 25.7 km/h 92% 4.32 mm
08:29 5.6 °C 4.4 °C 998.9 hPa SW 12.9 km/h 16.1 km/h 92% 4.57 mm
08:34 5.5 °C 4.3 °C 998.9 hPa SW 12.9 km/h 22.5 km/h 92% 4.57 mm
08:39 5.4 °C 4.2 °C 998.9 hPa SW 9.7 km/h 25.7 km/h 92% 4.57 mm
08:44 5.3 °C 4.1 °C 998.9 hPa SW 16.1 km/h 30.6 km/h 92% 4.83 mm
08:49 5.3 °C 4.1 °C 998.9 hPa WSW 16.1 km/h 25.7 km/h 92% 4.57 mm
08:54 5.2 °C 4 °C 998.9 hPa SW 14.5 km/h 25.7 km/h 92% 4.83 mm
08:59 5.1 °C 3.9 °C 998.9 hPa SW 14.5 km/h 27.4 km/h 92% 4.06 mm
09:04 5.1 °C 3.9 °C 999.2 hPa SW 14.5 km/h 29 km/h 92% 3.56 mm
09:09 5 °C 3.8 °C 999.2 hPa SW 14.5 km/h 29 km/h 92% 3.05 mm
09:14 4.9 °C 3.7 °C 999.2 hPa SW 14.5 km/h 30.6 km/h 92% 2.79 mm
09:19 4.8 °C 3.4 °C 999.2 hPa SW 16.1 km/h 32.2 km/h 91% 2.54 mm
09:24 4.7 °C 3.3 °C 999.2 hPa SW 19.3 km/h 30.6 km/h 91% 2.54 mm
09:29 4.6 °C 3.3 °C 999.2 hPa SW 17.7 km/h 25.7 km/h 91% 2.54 mm
09:34 4.6 °C 3.2 °C 999.2 hPa SSW 9.7 km/h 24.1 km/h 91% 2.54 mm
09:39 4.5 °C 3.2 °C 999.2 hPa South 9.7 km/h 25.7 km/h 91% 2.29 mm
09:44 4.5 °C 3.2 °C 999.2 hPa SSE 12.9 km/h 20.9 km/h 91% 2.03 mm
09:49 4.5 °C 3 °C 999.2 hPa West 9.7 km/h 22.5 km/h 90% 2.03 mm
09:54 4.4 °C 2.9 °C 999.2 hPa SSW 11.3 km/h 20.9 km/h 90% 1.52 mm
09:59 4.4 °C 2.9 °C 999.5 hPa SW 11.3 km/h 24.1 km/h 90% 1.78 mm
10:04 4.3 °C 2.8 °C 999.5 hPa SW 11.3 km/h 24.1 km/h 90% 1.52 mm
10:09 4.3 °C 2.8 °C 999.9 hPa SW 12.9 km/h 30.6 km/h 90% 1.78 mm
10:14 4.3 °C 2.8 °C 999.5 hPa SW 12.9 km/h 30.6 km/h 90% 1.78 mm
10:19 4.2 °C 2.7 °C 999.9 hPa SW 12.9 km/h 29 km/h 90% 2.03 mm
10:24 4.2 °C 2.7 °C 999.9 hPa SW 11.3 km/h 25.7 km/h 90% 2.29 mm
10:29 4.2 °C 2.7 °C 999.9 hPa SSW 9.7 km/h 27.4 km/h 90% 2.54 mm
10:34 4.1 °C 2.6 °C 999.9 hPa SW 12.9 km/h 33.8 km/h 90% 2.79 mm
10:39 4.1 °C 2.6 °C 999.9 hPa SW 12.9 km/h 33.8 km/h 90% 2.79 mm
10:44 4.2 °C 2.7 °C 999.5 hPa SW 12.9 km/h 25.7 km/h 90% 2.79 mm
10:49 4.2 °C 2.7 °C 999.5 hPa WSW 14.5 km/h 24.1 km/h 90% 2.54 mm
10:54 4.3 °C 2.8 °C 999.9 hPa West 4.8 km/h 19.3 km/h 90% 2.54 mm
10:59 4.4 °C 2.7 °C 999.5 hPa SW 8 km/h 19.3 km/h 89% 2.29 mm
11:04 4.4 °C 2.8 °C 999.5 hPa WSW 8 km/h 20.9 km/h 89% 2.29 mm
11:09 4.5 °C 2.7 °C 999.5 hPa WSW 11.3 km/h 22.5 km/h 88% 2.03 mm
11:14 4.7 °C 2.8 °C 999.9 hPa SSW 12.9 km/h 20.9 km/h 88% 1.78 mm
11:19 4.7 °C 2.7 °C 999.9 hPa West 4.8 km/h 19.3 km/h 87% 1.52 mm
11:24 4.8 °C 2.8 °C 999.9 hPa SW 11.3 km/h 22.5 km/h 87% 1.02 mm
11:29 4.7 °C 2.5 °C 999.9 hPa West 12.9 km/h 22.5 km/h 86% 0.51 mm
11:34 4.5 °C 2.3 °C 999.9 hPa SW 12.9 km/h 25.7 km/h 86% 0.51 mm
11:39 4.2 °C 2.1 °C 999.9 hPa WSW 12.9 km/h 25.7 km/h 86% 0.51 mm
11:44 4.1 °C 2.2 °C 1000.2 hPa SW 12.9 km/h 20.9 km/h 87% 0.51 mm
11:49 4 °C 2.1 °C 999.9 hPa SW 11.3 km/h 24.1 km/h 87% 0.51 mm
11:54 3.9 °C 2 °C 999.9 hPa SW 12.9 km/h 24.1 km/h 87% 0.51 mm
11:59 4.2 °C 2.2 °C 999.9 hPa SW 11.3 km/h 25.7 km/h 87% 0.51 mm
12:04 4.4 °C 2.4 °C 999.9 hPa SW 12.9 km/h 25.7 km/h 87% 0.51 mm
12:09 4.4 °C 2.3 °C 999.9 hPa SW 14.5 km/h 27.4 km/h 86% 0.51 mm
12:14 4.5 °C 2.2 °C 999.9 hPa West 9.7 km/h 27.4 km/h 85% 0.51 mm
12:19 4.4 °C 2.2 °C 999.5 hPa WSW 16.1 km/h 25.7 km/h 85% 0.51 mm
12:24 4.6 °C 2.1 °C 999.5 hPa SW 16.1 km/h 35.4 km/h 84% 0.51 mm
12:29 4.8 °C 2.3 °C 999.5 hPa SW 19.3 km/h 32.2 km/h 84% 0.51 mm
12:34 5.2 °C 2.7 °C 999.5 hPa WSW 16.1 km/h 32.2 km/h 84% 0.25 mm
12:39 5.3 °C 2.8 °C 999.5 hPa WSW 14.5 km/h 32.2 km/h 84% 0 mm
12:44 5.3 °C 2.3 °C 999.5 hPa WSW 16.1 km/h 40.2 km/h 81% 0 mm
12:49 5.2 °C 2.2 °C 999.5 hPa West 12.9 km/h 37 km/h 81% 0 mm
12:54 5.1 °C 1.8 °C 999.5 hPa West 19.3 km/h 37 km/h 79% 0 mm
12:59 4.9 °C 1.6 °C 999.5 hPa WSW 24.1 km/h 49.9 km/h 79% 0 mm
13:04 4.8 °C 1.5 °C 999.5 hPa WSW 24.1 km/h 49.9 km/h 79% 0 mm
13:09 4.9 °C 1.6 °C 999.9 hPa WSW 22.5 km/h 41.8 km/h 79% 0 mm
13:14 5.1 °C 1.4 °C 999.9 hPa WSW 20.9 km/h 37 km/h 77% 0 mm
13:19 5.4 °C 1.9 °C 999.9 hPa SW 29 km/h 33.8 km/h 78% 0 mm
13:24 5.6 °C 1.4 °C 999.5 hPa WSW 19.3 km/h 37 km/h 75% 0 mm
13:29 5.8 °C 1.4 °C 999.5 hPa WSW 11.3 km/h 35.4 km/h 73% 0 mm
13:34 5.9 °C 0.7 °C 999.5 hPa WSW 19.3 km/h 43.5 km/h 69% 0 mm
13:39 6.1 °C 1.2 °C 999.9 hPa WSW 19.3 km/h 43.5 km/h 71% 0 mm
13:44 5.9 °C 1.2 °C 999.9 hPa WSW 19.3 km/h 41.8 km/h 72% 0 mm
13:49 5.7 °C 1.1 °C 1000.2 hPa SSW 17.7 km/h 37 km/h 72% 0 mm
13:54 5.9 °C 1.4 °C 1000.2 hPa SSW 33.8 km/h 37 km/h 73% 0 mm
13:59 5.4 °C 0.9 °C 1000.6 hPa SSW 8 km/h 41.8 km/h 73% 0 mm
14:04 5.4 °C 1.3 °C 1000.6 hPa WSW 20.9 km/h 41.8 km/h 75% 0 mm
14:09 5.3 °C 0.9 °C 1000.6 hPa WSW 19.3 km/h 37 km/h 73% 0 mm
14:14 4.9 °C 0.7 °C 1000.6 hPa WSW 19.3 km/h 37 km/h 74% 0 mm
14:19 4.6 °C 0.4 °C 1000.6 hPa WSW 20.9 km/h 38.6 km/h 74% 0 mm
14:24 4.4 °C 0.4 °C 1000.6 hPa West 27.4 km/h 35.4 km/h 75% 0 mm
14:29 4.3 °C 0.3 °C 1000.6 hPa SW 14.5 km/h 30.6 km/h 75% 0 mm
14:34 4.3 °C 0.2 °C 1000.6 hPa WSW 17.7 km/h 30.6 km/h 75% 0 mm
14:39 4.2 °C 0.4 °C 1000.6 hPa WSW 19.3 km/h 38.6 km/h 76% 0 mm
14:44 4.2 °C 0.3 °C 1000.6 hPa West 20.9 km/h 46.7 km/h 76% 0 mm
14:49 4.1 °C 0.3 °C 1000.6 hPa WSW 22.5 km/h 30.6 km/h 76% 0 mm
14:54 4.1 °C 0.4 °C 1000.6 hPa SW 16.1 km/h 35.4 km/h 77% 0 mm
14:59 3.9 °C 0.4 °C 1000.6 hPa SSE 27.4 km/h 35.4 km/h 78% 0 mm
15:04 3.8 °C 0.3 °C 1000.9 hPa WSW 20.9 km/h 49.9 km/h 78% 0 mm
15:09 3.7 °C 0.4 °C 1000.9 hPa SW 20.9 km/h 49.9 km/h 79% 0 mm
15:14 3.6 °C 0.5 °C 1000.6 hPa SW 20.9 km/h 43.5 km/h 80% 0 mm
15:19 3.4 °C 0.3 °C 1000.9 hPa WSW 20.9 km/h 41.8 km/h 80% 0 mm
15:24 3.4 °C 0.4 °C 1000.9 hPa SW 19.3 km/h 35.4 km/h 81% 0 mm
15:29 3.4 °C 0.5 °C 1000.9 hPa WSW 24.1 km/h 32.2 km/h 81% 0 mm
15:34 3.4 °C 0.4 °C 1000.9 hPa WSW 22.5 km/h 37 km/h 81% 0 mm
15:39 3.3 °C 0.4 °C 1000.9 hPa WSW 19.3 km/h 37 km/h 81% 0 mm
15:44 3.2 °C 0.4 °C 1001.6 hPa WSW 19.3 km/h 35.4 km/h 82% 0 mm
15:49 3.1 °C 0.2 °C 1001.2 hPa South 16.1 km/h 37 km/h 81% 0 mm
15:54 3.2 °C 0.3 °C 1001.6 hPa WSW 16.1 km/h 32.2 km/h 81% 0 mm
15:59 3.2 °C 0.1 °C 1001.6 hPa SW 19.3 km/h 33.8 km/h 80% 0 mm
16:04 3.2 °C -0.1 °C 1001.9 hPa SW 19.3 km/h 33.8 km/h 79% 0 mm
16:09 3.1 °C -0.2 °C 1002.3 hPa SW 19.3 km/h 33.8 km/h 79% 0 mm
16:14 3 °C -0.4 °C 1001.9 hPa WSW 20.9 km/h 43.5 km/h 78% 0 mm
16:19 3 °C -0.3 °C 1001.6 hPa WSW 20.9 km/h 38.6 km/h 79% 0 mm
16:24 2.9 °C -0.3 °C 1001.6 hPa SW 16.1 km/h 37 km/h 79% 0 mm
16:29 2.9 °C -0.4 °C 1001.6 hPa West 20.9 km/h 35.4 km/h 79% 0 mm
16:34 2.9 °C -0.6 °C 1001.9 hPa WSW 30.6 km/h 41.8 km/h 78% 0 mm
16:39 2.8 °C -0.7 °C 1001.9 hPa WSW 20.9 km/h 41.8 km/h 78% 0 mm
16:44 2.6 °C -0.7 °C 1001.9 hPa WSW 22.5 km/h 41.8 km/h 79% 0 mm
16:54 2.4 °C -0.9 °C 1002.3 hPa West 19.3 km/h 33.8 km/h 79% 0 mm
16:59 2.3 °C -1.1 °C 1002.3 hPa SW 25.7 km/h 41.8 km/h 78% 0 mm
17:04 2.3 °C -1.3 °C 1002.3 hPa SW 16.1 km/h 40.2 km/h 77% 0 mm
17:09 2.2 °C -1.4 °C 1002.3 hPa West 29 km/h 49.9 km/h 77% 0 mm
17:14 2.2 °C -1.2 °C 1002.6 hPa WSW 24.1 km/h 49.9 km/h 78% 0 mm
17:19 2.2 °C -1.4 °C 1002.6 hPa WSW 22.5 km/h 43.5 km/h 77% 0 mm
17:24 2.2 °C -1.4 °C 1002.6 hPa SW 20.9 km/h 51.5 km/h 77% 0 mm
17:29 2.1 °C -1.5 °C 1002.9 hPa SW 24.1 km/h 35.4 km/h 77% 0 mm
17:34 2.1 °C -1.3 °C 1002.6 hPa WNW 16.1 km/h 35.4 km/h 78% 0 mm
17:39 2.1 °C -1.6 °C 1002.9 hPa WSW 16.1 km/h 35.4 km/h 77% 0 mm
17:44 2.1 °C -1.6 °C 1002.9 hPa WSW 19.3 km/h 35.4 km/h 77% 0 mm
17:49 2.1 °C -1.6 °C 1002.9 hPa WSW 20.9 km/h 45.1 km/h 77% 0 mm
17:54 2 °C -1.8 °C 1003.3 hPa WSW 22.5 km/h 45.1 km/h 76% 0 mm
17:59 2 °C -1.8 °C 1003.3 hPa WSW 20.9 km/h 41.8 km/h 76% 0 mm
18:04 1.9 °C -1.8 °C 1003.3 hPa WSW 20.9 km/h 40.2 km/h 76% 0 mm
18:09 1.9 °C -1.8 °C 1003.6 hPa SW 20.9 km/h 38.6 km/h 76% 0 mm
18:14 1.9 °C -2.3 °C 1003.6 hPa WSW 19.3 km/h 38.6 km/h 74% 0 mm
18:19 1.9 °C -2.4 °C 1003.6 hPa SW 30.6 km/h 40.2 km/h 73% 0 mm
18:24 1.9 °C -2.6 °C 1003.9 hPa SW 9.7 km/h 40.2 km/h 72% 0 mm
18:29 1.9 °C -2.8 °C 1003.9 hPa WSW 16.1 km/h 40.2 km/h 71% 0 mm
18:34 1.8 °C -2.7 °C 1004.3 hPa West 12.9 km/h 40.2 km/h 72% 0 mm
18:39 1.8 °C -2.7 °C 1004.3 hPa WSW 19.3 km/h 46.7 km/h 72% 0 mm
18:44 1.7 °C -2.8 °C 1004.3 hPa SW 17.7 km/h 37 km/h 72% 0 mm
18:49 1.7 °C -2.8 °C 1004.6 hPa WSW 19.3 km/h 37 km/h 72% 0 mm
18:54 1.7 °C -2.8 °C 1004.6 hPa WSW 19.3 km/h 40.2 km/h 72% 0 mm
18:59 1.6 °C -3.3 °C 1005 hPa WSW 19.3 km/h 40.2 km/h 70% 0 mm
19:04 1.4 °C -3.4 °C 1005 hPa WSW 20.9 km/h 43.5 km/h 70% 0 mm
19:09 1.3 °C -3 °C 1005.3 hPa WNW 19.3 km/h 40.2 km/h 73% 0 mm
19:14 1.1 °C -3.4 °C 1005.3 hPa SW 24.1 km/h 45.1 km/h 72% 0 mm
19:19 0.9 °C -3.6 °C 1005.6 hPa WSW 17.7 km/h 45.1 km/h 72% 0 mm
19:24 0.9 °C -3.6 °C 1005.6 hPa WSW 14.5 km/h 35.4 km/h 72% 0 mm
19:29 0.9 °C -3.9 °C 1005.6 hPa WSW 16.1 km/h 41.8 km/h 70% 0 mm
19:34 0.9 °C -3.9 °C 1006 hPa WSW 22.5 km/h 41.8 km/h 70% 0 mm
19:39 0.9 °C -3.7 °C 1006.3 hPa West 20.9 km/h 40.2 km/h 71% 0 mm
19:44 0.9 °C -3.8 °C 1006.3 hPa West 14.5 km/h 38.6 km/h 71% 0 mm
19:49 0.9 °C -3.6 °C 1006.3 hPa WSW 20.9 km/h 38.6 km/h 72% 0 mm
19:54 0.8 °C -3.4 °C 1006.3 hPa WSW 20.9 km/h 48.3 km/h 73% 0 mm
19:59 0.8 °C -3.3 °C 1006.7 hPa WSW 20.9 km/h 48.3 km/h 74% 0 mm
20:04 0.7 °C -3.4 °C 1006.7 hPa WSW 20.9 km/h 41.8 km/h 74% 0 mm
20:09 0.5 °C -2.9 °C 1007.3 hPa WSW 20.9 km/h 41.8 km/h 78% 0 mm
20:14 -0.4 °C -3 °C 1007.3 hPa West 14.5 km/h 37 km/h 83% 0 mm
20:19 -0.8 °C -2.9 °C 1007.7 hPa West 16.1 km/h 37 km/h 86% 0 mm
20:24 -0.9 °C -3 °C 1007.7 hPa West 8 km/h 22.5 km/h 86% 0 mm
20:29 -0.8 °C -2.9 °C 1007.7 hPa West 6.4 km/h 20.9 km/h 86% 0 mm
20:34 -0.8 °C -3 °C 1007.7 hPa West 6.4 km/h 20.9 km/h 85% 0 mm
20:39 -0.6 °C -3 °C 1008 hPa West 6.4 km/h 22.5 km/h 84% 0 mm
20:44 -0.5 °C -3.1 °C 1008 hPa West 11.3 km/h 20.9 km/h 83% 0 mm
20:49 -0.6 °C -3.2 °C 1008 hPa West 12.9 km/h 30.6 km/h 83% 0 mm
20:54 -0.8 °C -3.2 °C 1008.4 hPa West 12.9 km/h 30.6 km/h 84% 0 mm
20:59 -1.1 °C -3.1 °C 1008.4 hPa WSW 12.9 km/h 29 km/h 86% 0 mm
21:04 -1.3 °C -3.2 °C 1008.4 hPa West 14.5 km/h 29 km/h 87% 0 mm
21:09 -1.4 °C -3.3 °C 1008.4 hPa West 16.1 km/h 22.5 km/h 87% 0 mm
21:14 -1.3 °C -3.2 °C 1008.7 hPa WNW 19.3 km/h 29 km/h 87% 0 mm
21:19 -1.3 °C -3.7 °C 1008.4 hPa West 14.5 km/h 29 km/h 84% 0 mm
21:24 -1.2 °C -3.9 °C 1008.7 hPa West 12.9 km/h 25.7 km/h 82% 0 mm
21:29 -1.2 °C -4.2 °C 1008.7 hPa West 11.3 km/h 20.9 km/h 80% 0 mm
21:34 -1.1 °C -4.2 °C 1008.7 hPa West 9.7 km/h 19.3 km/h 79% 0 mm
21:39 -1 °C -4.3 °C 1009 hPa West 12.9 km/h 24.1 km/h 78% 0 mm
21:44 -0.9 °C -4.4 °C 1009 hPa WSW 12.9 km/h 29 km/h 77% 0 mm
21:49 -0.9 °C -4.6 °C 1009 hPa West 11.3 km/h 29 km/h 76% 0 mm
21:54 -0.9 °C -4.6 °C 1009 hPa West 12.9 km/h 29 km/h 76% 0 mm
21:59 -0.9 °C -4.6 °C 1009.4 hPa WNW 6.4 km/h 24.1 km/h 76% 0 mm
22:04 -0.9 °C -4.6 °C 1009 hPa NW 17.7 km/h 29 km/h 76% 0 mm
22:09 -0.9 °C -4.6 °C 1009.4 hPa WNW 14.5 km/h 25.7 km/h 76% 0 mm
22:14 -1.3 °C -4.6 °C 1009.4 hPa WNW 19.3 km/h 32.2 km/h 78% 0 mm
22:19 -1.6 °C -4.6 °C 1009.4 hPa WNW 14.5 km/h 33.8 km/h 80% 0 mm
22:24 -1.7 °C -4.7 °C 1009.7 hPa West 12.9 km/h 33.8 km/h 80% 0 mm
22:29 -1.6 °C -4.8 °C 1009.7 hPa West 11.3 km/h 22.5 km/h 79% 0 mm
22:34 -1.6 °C -4.8 °C 1009.7 hPa WNW 8 km/h 22.5 km/h 79% 0 mm
22:39 -1.7 °C -4.8 °C 1009.7 hPa WSW 4.8 km/h 24.1 km/h 79% 0 mm
22:44 -1.7 °C -4.8 °C 1009.7 hPa West 6.4 km/h 27.4 km/h 79% 0 mm
22:49 -1.7 °C -4.7 °C 1009.7 hPa West 12.9 km/h 29 km/h 80% 0 mm
22:54 -1.7 °C -4.9 °C 1009.7 hPa West 14.5 km/h 29 km/h 79% 0 mm
22:59 -1.7 °C -5.1 °C 1009.7 hPa West 14.5 km/h 25.7 km/h 78% 0 mm
23:04 -1.7 °C -5 °C 1010 hPa West 14.5 km/h 27.4 km/h 78% 0 mm
23:09 -1.7 °C -5.2 °C 1010 hPa West 29 km/h 29 km/h 77% 0 mm
23:14 -1.6 °C -5.3 °C 1010 hPa West 12.9 km/h 29 km/h 76% 0 mm
23:19 -1.7 °C -5.7 °C 1010 hPa West 12.9 km/h 37 km/h 74% 0 mm
23:24 -1.7 °C -5.7 °C 1010 hPa West 16.1 km/h 37 km/h 74% 0 mm
23:29 -1.7 °C -5.7 °C 1010 hPa West 16.1 km/h 27.4 km/h 74% 0 mm
23:34 -1.7 °C -5.7 °C 1010 hPa West 35.4 km/h 35.4 km/h 74% 0 mm
23:39 -1.8 °C -6 °C 1010.4 hPa West 11.3 km/h 35.4 km/h 73% 0 mm
23:44 -1.8 °C -6 °C 1010.4 hPa West 11.3 km/h 25.7 km/h 73% 0 mm
23:49 -1.8 °C -6.2 °C 1010.4 hPa West 12.9 km/h 27.4 km/h 72% 0 mm
23:54 -1.8 °C -6 °C 1010.4 hPa West 12.9 km/h 27.4 km/h 73% 0 mm
23:59 -1.8 °C -5.7 °C 1010.4 hPa WNW 8 km/h 20.9 km/h 75% 0 mm
Buffalo, New York, USA
Compliments of Weather Underground - 2.5 mb